Akeley, Minnesota
Current Conditions -  °F | °C
As of 11:55 AM on Monday 24 Nov 2014 (Local Time) from KY49 Reporting Station
Light Snow Light Snow  
Wind Chill: -19°   Ceiling: 1600
Heat Index: -11°   Visibility: 7mi
Dew Point: -14°   Wind: 12mph
Humidity: 80%   Direction: 330°NNW
Pressure: 29.57"   Gusts: 23mph
Location:  47°N, 94.73°W
Report Text: KY49 241755Z AUTO 33010G20KT 7SM -SN OVC016 M11/M14 A2957 RMK AO2 T11101138 11093 21110
Loading
Personal Weather Stations






























Interactive Weather Map New forecast layout! Learn more

10-Day Weather Forecast

Advertisements
Track Severe Weather on mobile